Time;durP1;ratioP1;P1;durP2;ratioP2;P2;SDS_P1;SDS_P2;PMS_P1;PMS_P2;Temp;Humidity;BMP_temperature;BMP_pressure;BME280_temperature;BME280_humidity;BME280_pressure;Samples;Min_cycle;Max_cycle;Signal;HPM_P1;HPM_P2
2021/01/19 00:00:38;;;;;;;;;;;8.60;99.90;;;;;;5097247;28;20016;-72
2021/01/19 00:03:03;;;;;;;3.38;1.45;;;8.70;99.90;;;;;;5096727;28;19947;-72
2021/01/19 00:05:29;;;;;;;;;;;8.60;99.90;;;;;;5100768;28;20016;-72
2021/01/19 00:07:55;;;;;;;14.15;1.98;;;8.60;99.90;;;;;;5100884;28;19908;-72
2021/01/19 00:10:21;;;;;;;;;;;8.60;99.90;;;;;;5101308;28;20028;-72
2021/01/19 00:12:47;;;;;;;11.50;2.05;;;8.80;99.90;;;;;;5100274;28;19927;-72
2021/01/19 00:15:13;;;;;;;;;;;8.70;99.90;;;;;;5101362;28;20032;-72
2021/01/19 00:17:38;;;;;;;8.48;2.17;;;8.70;99.90;;;;;;5100514;28;20003;-72
2021/01/19 00:20:05;;;;;;;;;;;8.50;99.90;;;;;;5101057;28;20142;-72
2021/01/19 00:22:32;;;;;;;5.17;1.00;;;8.60;99.90;;;;;;5100448;28;20386;-72
2021/01/19 00:24:59;;;;;;;5.57;1.60;;;8.60;99.90;;;;;;5099252;28;20027;-72
2021/01/19 00:27:25;;;;;;;4.95;1.15;;;8.70;99.90;;;;;;5100187;28;20031;-72
2021/01/19 00:29:50;;;;;;;;;;;8.60;99.90;;;;;;5101048;28;20099;-73
2021/01/19 00:32:16;;;;;;;5.47;1.30;;;8.70;99.90;;;;;;5100342;28;19904;-72
2021/01/19 00:34:42;;;;;;;;;;;8.90;99.90;;;;;;5100963;28;20031;-72
2021/01/19 00:37:08;;;;;;;3.03;1.00;;;8.90;99.90;;;;;;5100475;28;19908;-73
2021/01/19 00:39:33;;;;;;;;;;;8.60;99.90;;;;;;5100702;28;20030;-73
2021/01/19 00:41:59;;;;;;;4.43;1.40;;;8.80;99.90;;;;;;5100038;28;19991;-72
2021/01/19 00:44:25;;;;;;;7.93;1.10;;;8.70;99.90;;;;;;5100257;28;20066;-72
2021/01/19 00:46:51;;;;;;;;;;;8.80;99.90;;;;;;5100369;28;20052;-72
2021/01/19 00:49:18;;;;;;;0.90;0.90;;;8.80;99.90;;;;;;5100107;28;19904;-72
2021/01/19 00:51:44;;;;;;;17.25;2.70;;;8.80;99.90;;;;;;5099964;28;20016;-72
2021/01/19 00:54:10;;;;;;;;;;;8.80;99.90;;;;;;5100459;28;20035;-72
2021/01/19 00:56:40;;;;;;;4.68;1.10;;;8.80;99.90;;;;;;5099583;28;19915;-72
2021/01/19 00:59:07;;;;;;;2.42;0.90;;;8.80;99.90;;;;;;5099960;28;20024;-72
2021/01/19 01:01:34;;;;;;;6.95;1.15;;;8.90;99.90;;;;;;5099989;28;20031;-72
2021/01/19 01:04:00;;;;;;;7.60;1.50;;;9.00;99.90;;;;;;5099388;28;20077;-72
2021/01/19 01:06:26;;;;;;;6.28;1.83;;;8.80;99.90;;;;;;5099916;28;20026;-72
2021/01/19 01:08:52;;;;;;;;;;;8.80;99.90;;;;;;5100091;28;20442;-72
2021/01/19 01:11:18;;;;;;;3.92;1.40;;;8.80;99.90;;;;;;5099678;28;19904;-73
2021/01/19 01:13:44;;;;;;;;;;;8.90;99.90;;;;;;5099946;28;20024;-72
2021/01/19 01:16:11;;;;;;;2.42;1.10;;;8.90;99.90;;;;;;5097651;28;19985;-72
2021/01/19 01:18:37;;;;;;;6.82;2.10;;;8.80;99.90;;;;;;5099274;28;20030;-73
2021/01/19 01:21:03;;;;;;;;;;;8.70;99.90;;;;;;5100022;28;20028;-72
2021/01/19 01:23:29;;;;;;;5.90;1.45;;;8.80;99.90;;;;;;5099434;28;19943;-73
2021/01/19 01:25:54;;;;;;;;;;;8.90;99.90;;;;;;5099993;28;20066;-72
2021/01/19 01:28:20;;;;;;;7.88;1.67;;;8.50;99.90;;;;;;5098965;28;20321;-72
2021/01/19 01:30:46;;;;;;;;;;;8.80;99.90;;;;;;5098563;28;20028;-72
2021/01/19 01:33:12;;;;;;;5.53;1.50;;;8.80;99.90;;;;;;5099375;28;19943;-72
2021/01/19 01:35:37;;;;;;;;;;;8.80;99.90;;;;;;5099860;28;20020;-72
2021/01/19 01:38:03;;;;;;;4.60;1.65;;;8.70;99.90;;;;;;5099038;28;19908;-72
2021/01/19 01:40:29;;;;;;;;;;;8.80;99.90;;;;;;5099532;28;20024;-73
2021/01/19 01:42:56;;;;;;;11.77;2.25;;;8.70;99.90;;;;;;5098718;28;20083;-72
2021/01/19 01:45:24;;;;;;;15.05;2.47;;;8.80;99.90;;;;;;5099178;28;20016;-72
2021/01/19 01:47:51;;;;;;;6.82;2.28;;;8.80;99.90;;;;;;5098910;28;20085;-73
2021/01/19 01:50:18;;;;;;;4.88;1.55;;;8.80;99.90;;;;;;5098786;28;20042;-73
2021/01/19 01:52:46;;;;;;;8.27;1.85;;;8.70;99.90;;;;;;5098894;28;20023;-73
2021/01/19 01:55:14;;;;;;;5.65;1.88;;;8.90;99.90;;;;;;5097731;28;20024;-73
2021/01/19 01:57:41;;;;;;;6.28;1.75;;;8.90;99.90;;;;;;5097160;28;20115;-72
2021/01/19 02:00:09;;;;;;;4.05;1.40;;;8.70;99.90;;;;;;5098783;28;20031;-72
2021/01/19 02:02:46;;;;;;;7.10;1.95;;;8.80;99.90;;;;;;5098517;28;20020;-73
2021/01/19 02:05:12;;;;;;;11.85;2.85;;;8.80;99.90;;;;;;5098552;28;20024;-72
2021/01/19 02:07:58;;;;;;;;;;;8.80;99.90;;;;;;5099098;28;20050;-73
2021/01/19 02:10:50;;;;;;;9.23;2.30;;;8.90;99.90;;;;;;5098204;28;19904;-72
2021/01/19 02:13:24;;;;;;;12.15;1.85;;;8.80;99.90;;;;;;5096813;28;20032;-72
2021/01/19 02:15:59;;;;;;;8.43;1.90;;;8.70;99.90;;;;;;5098353;28;20028;-73
2021/01/19 02:19:06;;;;;;;10.27;2.20;;;8.90;99.90;;;;;;5098313;28;20189;-72
2021/01/19 02:21:51;;;;;;;6.28;1.63;;;8.90;99.90;;;;;;5079266;28;20032;-72
2021/01/19 02:24:42;;;;;;;3.80;1.20;;;8.90;99.90;;;;;;5096991;28;20020;-72
2021/01/19 02:27:20;;;;;;;11.80;1.92;;;8.90;99.90;;;;;;5097174;28;20048;-72
2021/01/19 02:30:22;;;;;;;8.77;2.53;;;8.90;99.90;;;;;;5098453;28;20042;-72
2021/01/19 02:33:03;;;;;;;6.10;2.05;;;8.70;99.90;;;;;;5097977;28;20024;-73
2021/01/19 02:35:39;;;;;;;6.15;1.65;;;8.80;99.90;;;;;;5098034;28;20040;-72
2021/01/19 02:38:14;;;;;;;;;;;9.00;99.90;;;;;;5096950;28;20389;-72
2021/01/19 02:40:41;;;;;;;9.20;1.95;;;8.80;99.90;;;;;;5098077;28;19904;-72
2021/01/19 02:43:20;;;;;;;10.20;1.60;;;8.70;99.90;;;;;;5097634;28;20103;-72
2021/01/19 02:45:48;;;;;;;7.57;1.65;;;8.80;99.90;;;;;;5097946;28;20384;-72
2021/01/19 02:48:16;;;;;;;7.85;1.90;;;8.80;99.90;;;;;;5097496;28;20040;-72
2021/01/19 02:50:42;;;;;;;5.07;2.60;;;8.80;99.90;;;;;;5098045;28;20056;-72
2021/01/19 02:53:10;;;;;;;5.72;1.88;;;8.80;99.90;;;;;;5097760;28;20020;-72
2021/01/19 02:55:35;;;;;;;6.63;2.15;;;8.90;99.90;;;;;;5096380;28;20053;-73
2021/01/19 02:58:05;;;;;;;;;;;8.90;99.90;;;;;;5097655;28;20571;-73
2021/01/19 03:01:02;;;;;;;10.07;4.20;;;8.90;99.90;;;;;;5097624;28;20504;-72
2021/01/19 03:03:33;;;;;;;10.65;2.42;;;8.80;99.90;;;;;;5097361;28;20395;-72
2021/01/19 03:06:05;;;;;;;9.02;1.85;;;8.90;99.90;;;;;;5097217;28;20024;-72
2021/01/19 03:08:33;;;;;;;7.55;2.33;;;8.90;99.90;;;;;;5097511;28;20107;-72
2021/01/19 03:11:02;;;;;;;18.05;2.63;;;8.90;99.90;;;;;;5095918;28;20119;-72
2021/01/19 03:13:29;;;;;;;6.78;1.95;;;8.80;99.90;;;;;;5096977;28;20020;-72
2021/01/19 03:16:25;;;;;;;15.25;3.97;;;8.80;99.90;;;;;;5097282;28;20519;-72
2021/01/19 03:18:52;;;;;;;10.60;1.98;;;8.70;99.90;;;;;;5083593;28;20047;-72
2021/01/19 03:21:18;;;;;;;14.02;2.15;;;8.90;99.90;;;;;;5097467;28;20107;-72
2021/01/19 03:23:43;;;;;;;;;;;8.80;99.90;;;;;;5096363;28;20052;-72
2021/01/19 03:26:10;;;;;;;9.80;1.90;;;8.70;99.90;;;;;;5097303;28;19908;-72
2021/01/19 03:28:36;;;;;;;12.25;3.13;;;8.90;99.90;;;;;;5097037;28;20059;-72
2021/01/19 03:31:03;;;;;;;14.48;2.88;;;8.80;99.90;;;;;;5097323;28;20119;-72
2021/01/19 03:33:30;;;;;;;10.00;2.15;;;8.80;99.90;;;;;;5097077;28;20024;-72
2021/01/19 03:35:56;;;;;;;12.65;2.20;;;8.80;99.90;;;;;;5097144;28;20054;-72
2021/01/19 03:38:22;;;;;;;9.55;2.42;;;8.80;99.90;;;;;;5096488;28;20392;-74
2021/01/19 03:40:48;;;;;;;8.07;2.30;;;8.90;99.90;;;;;;5097189;28;20483;-72
2021/01/19 03:43:14;;;;;;;;;;;8.80;99.90;;;;;;5096942;28;20038;-72
2021/01/19 03:45:40;;;;;;;12.38;2.45;;;8.80;99.90;;;;;;5097287;28;19905;-72
2021/01/19 03:48:06;;;;;;;;;;;9.00;99.90;;;;;;5097160;28;20056;-72
2021/01/19 03:50:32;;;;;;;11.95;3.10;;;8.80;99.90;;;;;;5096865;28;19927;-73
2021/01/19 03:52:59;;;;;;;11.10;2.15;;;8.80;99.90;;;;;;5095367;28;20077;-72
2021/01/19 03:55:24;;;;;;;10.20;2.35;;;8.80;99.90;;;;;;5096964;28;20028;-72
2021/01/19 03:57:50;;;;;;;;;;;8.80;99.90;;;;;;5096770;28;20035;-72
2021/01/19 04:00:17;;;;;;;10.45;1.90;;;8.80;99.90;;;;;;5096927;28;19911;-73
2021/01/19 04:02:43;;;;;;;12.55;1.63;;;8.70;99.90;;;;;;5096652;28;20020;-72
2021/01/19 04:05:09;;;;;;;;;;;8.80;99.90;;;;;;5095748;28;20028;-72
2021/01/19 04:07:39;;;;;;;13.83;2.30;;;8.80;99.90;;;;;;5096616;28;19911;-72
2021/01/19 04:10:08;;;;;;;6.78;2.22;;;8.70;99.90;;;;;;5096643;28;20377;-73
2021/01/19 04:12:34;;;;;;;14.38;2.72;;;8.90;99.90;;;;;;5096246;28;20087;-72
2021/01/19 04:15:00;;;;;;;;;;;8.80;99.90;;;;;;5096942;28;20139;-72
2021/01/19 04:17:26;;;;;;;7.70;2.00;;;9.00;99.90;;;;;;5096465;28;19915;-73
2021/01/19 04:19:51;;;;;;;11.25;3.25;;;8.80;99.90;;;;;;5096503;28;20012;-73
2021/01/19 04:22:17;;;;;;;;;;;8.80;99.90;;;;;;5096837;28;20031;-73
2021/01/19 04:24:43;;;;;;;17.13;2.75;;;8.80;99.90;;;;;;5096588;28;19911;-73
2021/01/19 04:27:08;;;;;;;;;;;8.80;99.90;;;;;;5096724;28;20008;-73
2021/01/19 04:29:34;;;;;;;10.40;2.33;;;9.00;99.90;;;;;;5095136;28;19912;-72
2021/01/19 04:32:00;;;;;;;;;;;8.90;99.90;;;;;;5096826;28;20031;-72
2021/01/19 04:34:26;;;;;;;11.88;2.20;;;8.80;99.90;;;;;;5096406;28;19931;-72
2021/01/19 04:36:51;;;;;;;;;;;8.80;99.90;;;;;;5095461;28;20055;-72
2021/01/19 04:39:17;;;;;;;11.25;2.53;;;8.90;99.90;;;;;;5096257;28;20474;-72
2021/01/19 04:41:46;;;;;;;;;;;8.80;99.90;;;;;;5096531;28;20024;-73
2021/01/19 04:44:12;;;;;;;5.15;1.70;;;8.80;99.90;;;;;;5096443;28;19904;-72
2021/01/19 04:46:40;;;;;;;8.48;2.25;;;8.80;99.90;;;;;;5096099;28;20016;-72
2021/01/19 04:49:06;;;;;;;11.35;2.00;;;8.80;99.90;;;;;;5096127;28;20042;-73
2021/01/19 04:51:34;;;;;;;10.25;2.30;;;8.70;99.90;;;;;;5098030;28;20031;-72
2021/01/19 04:54:05;;;;;;;7.22;1.95;;;8.80;99.90;;;;;;5099936;28;20067;-72
2021/01/19 04:56:32;;;;;;;7.70;2.15;;;8.60;99.90;;;;;;5099820;28;20042;-72
2021/01/19 04:58:58;;;;;;;7.13;2.13;;;8.70;99.90;;;;;;5100004;28;20024;-72
2021/01/19 05:01:36;;;;;;;9.38;2.33;;;8.60;99.90;;;;;;5099890;28;20107;-73
2021/01/19 05:04:14;;;;;;;8.00;2.22;;;8.50;99.90;;;;;;5099417;28;20028;-72
2021/01/19 05:06:42;;;;;;;19.02;2.80;;;8.70;99.90;;;;;;5099915;28;20547;-72
2021/01/19 05:09:10;;;;;;;9.45;2.20;;;8.70;99.90;;;;;;5098504;28;20144;-72
2021/01/19 05:11:52;;;;;;;7.20;1.90;;;8.60;99.90;;;;;;5098130;28;20039;-72
2021/01/19 05:14:22;;;;;;;9.55;2.05;;;8.60;99.90;;;;;;5099688;28;20107;-72
2021/01/19 05:16:51;;;;;;;11.68;2.17;;;8.60;99.90;;;;;;5099667;28;20056;-72
2021/01/19 05:19:22;;;;;;;11.75;3.85;;;8.50;99.90;;;;;;5099457;28;20103;-73
2021/01/19 05:21:52;;;;;;;8.07;1.90;;;8.40;99.90;;;;;;5099475;28;20028;-72
2021/01/19 05:24:18;;;;;;;7.13;1.67;;;8.50;99.90;;;;;;5099476;28;20070;-72
2021/01/19 05:26:44;;;;;;;;;;;8.50;99.90;;;;;;5099570;28;20024;-72
2021/01/19 05:29:09;;;;;;;8.70;1.70;;;8.60;99.90;;;;;;5099723;28;19904;-72
2021/01/19 05:31:35;;;;;;;;;;;8.60;99.90;;;;;;5099912;28;20028;-72
2021/01/19 05:34:13;;;;;;;7.50;1.98;;;8.50;99.90;;;;;;5099063;28;20027;-73
2021/01/19 05:36:48;;;;;;;6.47;1.63;;;8.50;99.90;;;;;;5099291;28;20499;-72
2021/01/19 05:39:19;;;;;;;7.47;1.85;;;8.50;99.90;;;;;;5097873;28;20034;-72
2021/01/19 05:41:50;;;;;;;11.27;2.38;;;8.70;99.90;;;;;;5098741;28;20016;-72
2021/01/19 05:44:30;;;;;;;16.85;2.60;;;8.60;99.90;;;;;;5099066;28;20103;-72
2021/01/19 05:46:59;;;;;;;7.53;3.47;;;8.60;99.90;;;;;;5099028;28;20097;-72
2021/01/19 05:49:26;;;;;;;7.78;2.13;;;8.50;99.90;;;;;;5097420;28;20035;-72
2021/01/19 05:52:19;;;;;;;10.32;2.33;;;8.60;99.90;;;;;;5097608;28;20064;-72
2021/01/19 05:54:47;;;;;;;7.93;1.73;;;8.60;99.90;;;;;;5098701;28;20871;-72
2021/01/19 05:57:23;;;;;;;5.80;1.83;;;8.50;99.90;;;;;;5098645;28;20043;-72
2021/01/19 06:00:01;;;;;;;5.25;1.77;;;8.60;99.90;;;;;;5098870;28;20066;-73
2021/01/19 06:02:40;;;;;;;5.50;2.40;;;8.60;99.90;;;;;;5098219;28;20054;-72
2021/01/19 06:05:16;;;;;;;10.10;2.15;;;8.60;99.90;;;;;;5098577;28;20024;-72
2021/01/19 06:07:47;;;;;;;7.03;1.80;;;8.60;99.90;;;;;;5098555;28;20053;-72
2021/01/19 06:10:15;;;;;;;11.50;2.00;;;8.60;99.90;;;;;;5098934;28;20120;-72
2021/01/19 06:12:41;;;;;;;6.68;1.42;;;8.60;99.90;;;;;;5098126;28;20028;-71
2021/01/19 06:15:07;;;;;;;;;;;8.70;99.90;;;;;;5099017;28;20031;-72
2021/01/19 06:17:33;;;;;;;7.33;1.93;;;8.60;99.90;;;;;;5098318;28;19908;-72
2021/01/19 06:19:59;;;;;;;;;;;8.70;99.90;;;;;;5089310;28;20630;-72
2021/01/19 06:22:26;;;;;;;5.47;1.50;;;8.80;99.90;;;;;;5085100;28;19908;-72
2021/01/19 06:24:57;;;;;;;8.68;2.25;;;8.60;99.90;;;;;;5096983;28;20016;-72
2021/01/19 06:27:22;;;;;;;10.93;2.00;;;8.70;99.90;;;;;;5097415;28;20044;-72
2021/01/19 06:29:49;;;;;;;;;;;8.60;99.90;;;;;;5098229;28;20024;-72
2021/01/19 06:32:16;;;;;;;7.83;2.00;;;8.60;99.90;;;;;;5097697;28;20000;-71
2021/01/19 06:34:42;;;;;;;10.98;1.90;;;8.60;99.90;;;;;;5096819;28;20020;-74
2021/01/19 06:37:10;;;;;;;6.88;2.13;;;8.60;99.90;;;;;;5098266;28;20065;-72
2021/01/19 06:39:42;;;;;;;8.85;2.20;;;8.60;99.90;;;;;;5098203;28;20039;-72
2021/01/19 06:42:16;;;;;;;8.20;1.95;;;8.50;99.90;;;;;;5097759;28;20032;-72
2021/01/19 06:44:45;;;;;;;8.73;2.30;;;8.60;99.90;;;;;;5097869;28;20087;-72
2021/01/19 06:47:12;;;;;;;8.52;1.75;;;8.50;99.90;;;;;;5097926;28;20051;-72
2021/01/19 06:49:39;;;;;;;9.73;2.67;;;8.60;99.90;;;;;;5096393;28;20028;-72
2021/01/19 06:52:08;;;;;;;6.10;2.00;;;8.60;99.90;;;;;;5097638;28;20024;-72
2021/01/19 06:54:52;;;;;;;13.95;3.03;;;8.60;99.90;;;;;;5097592;28;20016;-72
2021/01/19 06:57:30;;;;;;;5.72;1.60;;;8.60;99.90;;;;;;5097397;28;20029;-72
2021/01/19 07:00:20;;;;;;;7.85;1.98;;;8.70;99.90;;;;;;5097626;28;20115;-72
2021/01/19 07:02:48;;;;;;;7.43;2.03;;;8.60;99.90;;;;;;5097373;28;20073;-72
2021/01/19 07:05:22;;;;;;;10.07;2.10;;;8.60;99.90;;;;;;5097400;28;20020;-72
2021/01/19 07:07:54;;;;;;;7.80;2.10;;;8.50;99.90;;;;;;5097328;28;20056;-72
2021/01/19 07:10:24;;;;;;;6.68;1.77;;;8.60;99.90;;;;;;5097407;28;20035;-72
2021/01/19 07:12:57;;;;;;;6.80;1.80;;;8.60;99.90;;;;;;5096892;28;20547;-72
2021/01/19 07:15:45;;;;;;;8.43;1.63;;;8.70;99.90;;;;;;5096857;28;20028;-72
2021/01/19 07:18:32;;;;;;;5.50;1.60;;;8.60;99.90;;;;;;5097444;28;20108;-72
2021/01/19 07:21:06;;;;;;;13.77;2.58;;;8.70;99.90;;;;;;5097229;28;20109;-72
2021/01/19 07:23:47;;;;;;;9.13;1.95;;;8.70;99.90;;;;;;5097165;28;20499;-72
2021/01/19 07:26:17;;;;;;;10.27;2.25;;;8.60;99.90;;;;;;5096908;28;20109;-72
2021/01/19 07:28:43;;;;;;;8.07;1.90;;;8.60;99.90;;;;;;5096976;28;20103;-72
2021/01/19 07:31:09;;;;;;;;;;;8.60;99.90;;;;;;5097704;28;20051;-72
2021/01/19 07:33:37;;;;;;;10.88;2.38;;;8.70;99.90;;;;;;5096784;28;19949;-72
2021/01/19 07:36:04;;;;;;;4.72;1.70;;;8.80;99.90;;;;;;5095757;28;20024;-72
2021/01/19 07:38:30;;;;;;;9.65;2.00;;;8.60;99.90;;;;;;5096653;28;20115;-72
2021/01/19 07:40:56;;;;;;;;;;;8.60;99.90;;;;;;5097341;28;20047;-72
2021/01/19 07:43:21;;;;;;;12.27;2.97;;;8.70;99.90;;;;;;5096755;28;20299;-72
2021/01/19 07:45:51;;;;;;;;;;;8.60;99.90;;;;;;5097317;28;20024;-72
2021/01/19 07:48:29;;;;;;;9.30;2.95;;;8.50;99.90;;;;;;5095267;28;19923;-71
2021/01/19 07:50:54;;;;;;;6.53;1.63;;;8.50;99.90;;;;;;5096923;28;20369;-72
2021/01/19 07:53:20;;;;;;;;;;;8.60;99.90;;;;;;5096939;28;20165;-72
2021/01/19 07:55:46;;;;;;;12.40;2.20;;;8.40;99.90;;;;;;5096802;28;19908;-72
2021/01/19 07:58:23;;;;;;;15.90;2.67;;;8.50;99.90;;;;;;5096599;28;20052;-72
2021/01/19 08:00:58;;;;;;;9.25;2.50;;;8.50;99.90;;;;;;5095270;28;20034;-72
2021/01/19 08:03:30;;;;;;;8.80;2.15;;;8.60;99.90;;;;;;5096587;28;20021;-72
2021/01/19 08:06:08;;;;;;;13.75;3.15;;;8.50;99.90;;;;;;5096545;28;20067;-72
2021/01/19 08:08:39;;;;;;;17.48;3.17;;;8.60;99.90;;;;;;5096728;28;20024;-72
2021/01/19 08:11:05;;;;;;;15.18;2.08;;;8.60;99.90;;;;;;5096271;28;20048;-72
2021/01/19 08:13:31;;;;;;;;;;;8.60;99.90;;;;;;5096781;28;20039;-72
2021/01/19 08:16:04;;;;;;;7.82;2.05;;;8.70;99.90;;;;;;5096454;28;19904;-72
2021/01/19 08:18:43;;;;;;;5.93;2.10;;;8.80;99.90;;;;;;5096377;28;20438;-72
2021/01/19 08:21:11;;;;;;;16.77;2.90;;;8.70;99.90;;;;;;5096743;28;20023;-72
2021/01/19 08:23:38;;;;;;;12.93;2.92;;;8.60;99.90;;;;;;5095239;28;20024;-72
2021/01/19 08:26:10;;;;;;;7.80;2.10;;;8.60;99.90;;;;;;5099204;28;20016;-72
2021/01/19 08:28:37;;;;;;;12.35;2.45;;;8.70;99.90;;;;;;5100640;28;20039;-72
2021/01/19 08:31:13;;;;;;;8.77;2.10;;;9.00;99.90;;;;;;5100604;28;20028;-72
2021/01/19 08:33:40;;;;;;;9.77;2.63;;;8.70;99.90;;;;;;5098962;28;20024;-72
2021/01/19 08:36:08;;;;;;;13.63;2.33;;;8.70;99.90;;;;;;5100553;28;20028;-72
2021/01/19 08:38:34;;;;;;;10.80;2.17;;;8.80;99.90;;;;;;5100171;28;20106;-71
2021/01/19 08:41:00;;;;;;;8.52;3.28;;;8.80;99.90;;;;;;5099916;28;20016;-71
2021/01/19 08:43:26;;;;;;;;;;;8.90;99.90;;;;;;5100601;28;20402;-71
2021/01/19 08:45:54;;;;;;;5.00;1.63;;;8.90;99.90;;;;;;5100177;28;20244;-71
2021/01/19 08:48:22;;;;;;;5.22;2.95;;;8.90;99.90;;;;;;5099805;28;20051;-71
2021/01/19 08:50:48;;;;;;;9.60;2.60;;;8.90;99.90;;;;;;5100129;28;20024;-71
2021/01/19 08:53:14;;;;;;;;;;;9.10;99.90;;;;;;5100295;28;20399;-71
2021/01/19 08:55:43;;;;;;;11.05;2.60;;;8.90;99.90;;;;;;5100206;28;19904;-71
2021/01/19 08:58:16;;;;;;;8.57;2.42;;;8.90;99.90;;;;;;5099875;28;20031;-71
2021/01/19 09:00:42;;;;;;;12.98;2.75;;;9.00;99.90;;;;;;5099872;28;20024;-71
2021/01/19 09:03:17;;;;;;;;;;;9.00;99.90;;;;;;5100394;28;20048;-71
2021/01/19 09:05:43;;;;;;;10.20;2.13;;;9.00;99.90;;;;;;5099721;28;20339;-71
2021/01/19 09:08:16;;;;;;;;;;;9.00;99.90;;;;;;5100465;28;20055;-71
2021/01/19 09:10:43;;;;;;;8.85;2.35;;;9.10;99.90;;;;;;5099651;28;20360;-71
2021/01/19 09:13:09;;;;;;;12.63;2.78;;;9.00;99.90;;;;;;5100108;28;20023;-71
2021/01/19 09:15:43;;;;;;;14.10;2.60;;;9.00;99.90;;;;;;5099483;28;20055;-71
2021/01/19 09:18:13;;;;;;;7.55;1.73;;;9.10;99.90;;;;;;5099771;28;20499;-71
2021/01/19 09:20:40;;;;;;;7.45;2.78;;;9.20;99.90;;;;;;5099513;28;20034;-71
2021/01/19 09:23:15;;;;;;;10.43;2.97;;;9.10;99.90;;;;;;5099680;28;20028;-71
2021/01/19 09:25:44;;;;;;;9.50;2.47;;;9.30;99.90;;;;;;5099261;28;20495;-72
2021/01/19 09:28:11;;;;;;;8.63;2.90;;;9.30;99.90;;;;;;5099716;28;20020;-71
2021/01/19 09:30:39;;;;;;;13.60;2.63;;;9.40;99.90;;;;;;5099331;28;20430;-71
2021/01/19 09:33:06;;;;;;;7.43;2.70;;;9.40;99.90;;;;;;5099286;28;20024;-71
2021/01/19 09:35:33;;;;;;;6.30;2.42;;;9.50;99.90;;;;;;5099116;28;20024;-71
2021/01/19 09:37:59;;;;;;;11.45;2.65;;;9.50;99.90;;;;;;5098514;28;20024;-71
2021/01/19 09:40:43;;;;;;;10.85;2.90;;;9.60;99.90;;;;;;5099161;28;20072;-71
2021/01/19 09:43:14;;;;;;;14.82;3.17;;;9.60;99.90;;;;;;5099276;28;20384;-71
2021/01/19 09:45:41;;;;;;;11.15;2.80;;;9.70;99.90;;;;;;5099138;28;20024;-71
2021/01/19 09:48:08;;;;;;;10.63;2.50;;;9.70;99.90;;;;;;5098986;28;20043;-71
2021/01/19 09:50:34;;;;;;;13.55;2.45;;;9.70;99.90;;;;;;5098927;28;20472;-71
2021/01/19 09:53:00;;;;;;;;;;;9.70;99.90;;;;;;5099199;28;20124;-71
2021/01/19 09:55:32;;;;;;;11.55;2.58;;;9.70;99.90;;;;;;5098880;28;19908;-71
2021/01/19 09:57:58;;;;;;;13.35;2.28;;;9.70;99.90;;;;;;5098369;28;20081;-71
2021/01/19 10:00:39;;;;;;;7.00;2.53;;;9.80;99.90;;;;;;5098710;28;20388;-71
2021/01/19 10:03:09;;;;;;;8.90;2.13;;;9.70;99.90;;;;;;5097344;28;20124;-71
2021/01/19 10:05:35;;;;;;;16.35;2.83;;;9.70;99.90;;;;;;5097105;28;20387;-71
2021/01/19 10:08:00;;;;;;;;;;;9.80;99.90;;;;;;5098963;28;20161;-71
2021/01/19 10:10:34;;;;;;;7.15;2.70;;;9.90;99.90;;;;;;5098568;28;20261;-71
2021/01/19 10:13:04;;;;;;;10.57;2.17;;;10.00;99.90;;;;;;5098267;28;20024;-71
2021/01/19 10:15:31;;;;;;;6.95;1.90;;;10.00;99.90;;;;;;5098371;28;20073;-71
2021/01/19 10:17:58;;;;;;;14.80;2.53;;;10.00;99.90;;;;;;5098343;28;20123;-71
2021/01/19 10:20:34;;;;;;;7.53;2.45;;;10.00;99.90;;;;;;5098186;28;20035;-71
2021/01/19 10:23:00;;;;;;;10.98;3.03;;;10.00;99.90;;;;;;5098370;28;20050;-71
2021/01/19 10:25:29;;;;;;;10.40;2.55;;;10.00;99.90;;;;;;5098158;28;20028;-71
2021/01/19 10:27:58;;;;;;;7.85;2.13;;;10.20;99.90;;;;;;5096629;28;20503;-71
2021/01/19 10:30:29;;;;;;;6.40;2.58;;;10.10;99.90;;;;;;5098117;28;20020;-71
2021/01/19 10:32:55;;;;;;;9.70;3.15;;;10.10;99.90;;;;;;5098077;28;20024;-71
2021/01/19 10:35:35;;;;;;;12.95;2.85;;;10.20;99.90;;;;;;5097860;28;20024;-71
2021/01/19 10:38:06;;;;;;;10.57;4.20;;;10.10;99.90;;;;;;5097786;28;20472;-71
2021/01/19 10:40:32;;;;;;;6.97;2.97;;;10.10;99.90;;;;;;5096715;28;20032;-71
2021/01/19 10:43:01;;;;;;;5.85;2.38;;;10.20;99.90;;;;;;5096179;28;20028;-71
2021/01/19 10:45:29;;;;;;;7.80;2.60;;;10.30;99.90;;;;;;5096540;28;20441;-71
2021/01/19 10:47:56;;;;;;;12.55;3.58;;;10.30;99.90;;;;;;5097211;28;20557;-71
2021/01/19 10:50:27;;;;;;;8.07;2.60;;;10.30;99.90;;;;;;5095994;28;20024;-71
2021/01/19 10:53:04;;;;;;;12.50;3.13;;;10.30;99.90;;;;;;5096244;28;20053;-71
2021/01/19 10:55:31;;;;;;;15.63;2.92;;;10.30;99.90;;;;;;5097727;28;20507;-71
2021/01/19 10:58:00;;;;;;;11.05;2.28;;;10.40;99.90;;;;;;5097186;28;20034;-71
2021/01/19 11:00:28;;;;;;;6.65;2.17;;;10.50;99.90;;;;;;5096291;28;20016;-71
2021/01/19 11:02:54;;;;;;;5.80;2.00;;;10.50;99.90;;;;;;5097307;28;20020;-71
2021/01/19 11:05:21;;;;;;;7.03;3.15;;;10.60;99.90;;;;;;5097411;28;20016;-71
2021/01/19 11:07:49;;;;;;;15.50;2.53;;;10.50;99.90;;;;;;5096116;28;20024;-71
2021/01/19 11:10:16;;;;;;;10.75;2.75;;;10.50;99.90;;;;;;5097635;28;20027;-71
2021/01/19 11:12:43;;;;;;;12.93;2.53;;;10.50;99.90;;;;;;5096856;28;20020;-71
2021/01/19 11:15:10;;;;;;;7.85;2.30;;;10.50;99.90;;;;;;5097534;28;20023;-71
2021/01/19 11:17:36;;;;;;;5.15;2.20;;;10.50;99.90;;;;;;5096125;28;20450;-71
2021/01/19 11:20:07;;;;;;;7.03;2.13;;;10.50;99.90;;;;;;5097160;28;20028;-71
2021/01/19 11:22:33;;;;;;;12.55;2.80;;;10.40;99.90;;;;;;5095842;28;20054;-70
2021/01/19 11:24:59;;;;;;;5.18;2.03;;;10.50;99.90;;;;;;5097106;28;20020;-71
2021/01/19 11:27:27;;;;;;;7.63;2.13;;;10.50;99.90;;;;;;5097010;28;20072;-71
2021/01/19 11:29:54;;;;;;;14.60;2.63;;;10.60;99.90;;;;;;5097046;28;20016;-71
2021/01/19 11:32:19;;;;;;;8.40;1.85;;;10.60;99.90;;;;;;5097074;28;20024;-71
2021/01/19 11:34:46;;;;;;;5.85;3.08;;;10.60;99.90;;;;;;5095555;28;20035;-71
2021/01/19 11:37:15;;;;;;;6.00;2.08;;;10.60;99.90;;;;;;5097187;28;20027;-71
2021/01/19 11:39:42;;;;;;;8.77;2.30;;;10.60;99.90;;;;;;5096812;28;20090;-71
2021/01/19 11:42:08;;;;;;;8.48;2.05;;;10.50;99.90;;;;;;5096866;28;20093;-71
2021/01/19 11:44:34;;;;;;;5.75;1.92;;;10.60;99.90;;;;;;5096817;28;20032;-71
2021/01/19 11:47:00;;;;;;;6.65;2.10;;;10.60;99.90;;;;;;5096800;28;20525;-71
2021/01/19 11:49:26;;;;;;;6.72;2.33;;;10.50;99.90;;;;;;5096652;28;20376;-71
2021/01/19 11:51:52;;;;;;;5.43;1.90;;;10.60;99.90;;;;;;5096983;28;20089;-71
2021/01/19 11:54:18;;;;;;;9.00;2.30;;;10.60;99.90;;;;;;5096664;28;20021;-71
2021/01/19 11:56:48;;;;;;;7.63;2.30;;;10.60;99.90;;;;;;5096782;28;20449;-71
2021/01/19 11:59:15;;;;;;;13.80;2.97;;;10.60;99.90;;;;;;5096414;28;20430;-72
2021/01/19 12:01:41;;;;;;;7.30;1.75;;;10.60;99.90;;;;;;5096811;28;20020;-71
2021/01/19 12:04:08;;;;;;;5.50;2.25;;;10.70;99.90;;;;;;5096444;28;20391;-71
2021/01/19 12:06:41;;;;;;;10.55;2.30;;;10.60;99.90;;;;;;5096841;28;20028;-71
2021/01/19 12:09:09;;;;;;;10.07;3.25;;;10.70;99.90;;;;;;5096912;28;20028;-71
2021/01/19 12:11:40;;;;;;;9.55;2.42;;;10.60;99.90;;;;;;5095308;28;20162;-71
2021/01/19 12:14:05;;;;;;;11.35;1.95;;;10.50;99.90;;;;;;5096768;28;20149;-71
2021/01/19 12:16:33;;;;;;;7.78;1.73;;;10.60;99.90;;;;;;5096725;28;20028;-71
2021/01/19 12:18:59;;;;;;;10.02;2.08;;;10.50;99.90;;;;;;5095301;28;20024;-71
2021/01/19 12:21:25;;;;;;;8.70;2.40;;;10.50;99.90;;;;;;5096497;28;20032;-71
2021/01/19 12:23:51;;;;;;;7.95;1.98;;;10.50;99.90;;;;;;5096488;28;20031;-71
2021/01/19 12:26:18;;;;;;;8.25;1.80;;;10.50;99.90;;;;;;5096383;28;20012;-71
2021/01/19 12:28:44;;;;;;;13.25;4.28;;;10.50;99.90;;;;;;5096404;28;20403;-71
2021/01/19 12:31:11;;;;;;;8.13;2.15;;;10.60;99.90;;;;;;5096620;28;20376;-71
2021/01/19 12:33:40;;;;;;;11.10;2.13;;;10.50;99.90;;;;;;5096320;28;20020;-71
2021/01/19 12:36:06;;;;;;;7.78;2.25;;;10.50;99.90;;;;;;5096677;28;20024;-71
2021/01/19 12:38:32;;;;;;;10.48;2.40;;;10.50;99.90;;;;;;5096218;28;20392;-71
2021/01/19 12:40:59;;;;;;;5.40;1.88;;;10.30;99.90;;;;;;5094841;28;20020;-71
2021/01/19 12:43:24;;;;;;;11.02;2.10;;;10.50;99.90;;;;;;5096259;28;20020;-71
2021/01/19 12:45:51;;;;;;;6.82;2.45;;;10.60;99.90;;;;;;5096324;28;20506;-71
2021/01/19 12:48:17;;;;;;;11.88;2.35;;;10.60;99.90;;;;;;5096026;28;20052;-71
2021/01/19 12:50:43;;;;;;;7.38;2.55;;;10.70;99.90;;;;;;5094926;28;20111;-71
2021/01/19 12:53:09;;;;;;;10.63;2.45;;;10.70;99.90;;;;;;5096361;28;20028;-71
2021/01/19 12:55:35;;;;;;;6.60;1.90;;;10.80;99.90;;;;;;5096170;28;20055;-71
2021/01/19 12:58:01;;;;;;;8.43;2.42;;;10.80;99.90;;;;;;5096032;28;20024;-71
2021/01/19 13:00:27;;;;;;;9.13;2.47;;;10.90;99.90;;;;;;5096199;28;20051;-71
2021/01/19 13:02:53;;;;;;;4.68;2.47;;;11.00;99.90;;;;;;5095961;28;20025;-71
2021/01/19 13:05:19;;;;;;;10.27;2.50;;;11.30;99.90;;;;;;5095891;28;20012;-71
2021/01/19 13:07:45;;;;;;;8.43;2.08;;;11.60;99.90;;;;;;5095941;28;20028;-71
2021/01/19 13:10:12;;;;;;;6.13;2.20;;;11.70;99.90;;;;;;5094694;28;20023;-71
2021/01/19 13:12:38;;;;;;;12.02;2.78;;;11.80;99.90;;;;;;5097706;28;20020;-71